createdAt,value
2018-03-25T00:00:20.124Z,82.24
2018-03-25T00:02:13.016Z,82.43
2018-03-25T00:03:13.031Z,82.24
2018-03-25T00:05:05.954Z,82.52
2018-03-25T00:06:05.950Z,82.52
2018-03-25T00:07:58.861Z,82.71
2018-03-25T00:08:58.856Z,82.71
2018-03-25T00:10:51.749Z,83.00
2018-03-25T00:11:51.765Z,82.62
2018-03-25T00:13:44.678Z,82.90
2018-03-25T00:14:44.673Z,82.81
2018-03-25T00:16:37.570Z,82.90
2018-03-25T00:17:37.582Z,83.18
2018-03-25T00:19:30.498Z,83.28
2018-03-25T00:20:30.494Z,83.18
2018-03-25T00:22:23.386Z,83.00
2018-03-25T00:23:23.400Z,83.09
2018-03-25T00:25:16.512Z,82.81
2018-03-25T00:26:16.512Z,82.62
2018-03-25T00:28:09.415Z,82.71
2018-03-25T00:29:09.411Z,82.81
2018-03-25T00:31:02.310Z,83.09
2018-03-25T00:32:02.340Z,83.14
2018-03-25T00:33:55.232Z,83.00
2018-03-25T00:34:55.231Z,82.62
2018-03-25T00:36:48.123Z,83.09
2018-03-25T00:37:48.142Z,83.05
2018-03-25T00:39:41.046Z,83.85
2018-03-25T00:40:41.045Z,83.47
2018-03-25T00:42:33.945Z,83.47
2018-03-25T00:43:33.952Z,83.43
2018-03-25T00:45:26.866Z,83.52
2018-03-25T00:46:26.860Z,83.43
2018-03-25T00:48:19.770Z,83.33
2018-03-25T00:49:19.766Z,83.62
2018-03-25T00:51:12.875Z,83.90
2018-03-25T00:52:12.888Z,83.81
2018-03-25T00:54:05.800Z,84.47
2018-03-25T00:55:05.795Z,84.09
2018-03-25T00:56:58.692Z,84.56
2018-03-25T00:57:58.701Z,84.75
2018-03-25T00:59:51.616Z,84.38
2018-03-25T01:00:51.607Z,84.47
2018-03-25T01:02:44.502Z,84.38
2018-03-25T01:03:44.516Z,84.66
2018-03-25T01:05:37.432Z,84.66
2018-03-25T01:06:37.428Z,84.56
2018-03-25T01:08:30.341Z,84.66
2018-03-25T01:09:30.338Z,84.75
2018-03-25T01:11:23.237Z,84.94
2018-03-25T01:12:23.253Z,84.56
2018-03-25T01:14:16.161Z,84.75
2018-03-25T01:15:16.156Z,84.56
2018-03-25T01:17:10.046Z,85.04
2018-03-25T01:18:10.061Z,84.94
2018-03-25T01:20:02.976Z,84.28
2018-03-25T01:21:02.969Z,84.47
2018-03-25T01:22:55.863Z,84.19
2018-03-25T01:23:55.932Z,84.66
2018-03-25T01:25:48.789Z,84.56
2018-03-25T01:26:48.783Z,84.38
2018-03-25T01:28:41.692Z,84.66
2018-03-25T01:29:41.689Z,83.81
2018-03-25T01:31:34.579Z,84.00
2018-03-25T01:32:34.597Z,84.00
2018-03-25T01:34:27.513Z,84.00
2018-03-25T01:35:27.509Z,84.66
2018-03-25T01:37:20.401Z,84.47
2018-03-25T01:38:20.416Z,84.56
2018-03-25T01:40:13.330Z,84.75
2018-03-25T01:41:13.328Z,85.04
2018-03-25T01:43:06.217Z,84.85
2018-03-25T01:44:06.229Z,84.66
2018-03-25T01:45:59.152Z,84.56
2018-03-25T01:46:59.147Z,85.42
2018-03-25T01:48:52.061Z,84.66
2018-03-25T01:49:52.062Z,84.56
2018-03-25T01:51:44.950Z,84.75
2018-03-25T01:52:44.962Z,84.66
2018-03-25T01:54:37.874Z,85.23
2018-03-25T01:55:37.873Z,84.38
2018-03-25T01:57:30.765Z,84.56
2018-03-25T01:58:30.781Z,84.47
2018-03-25T02:00:23.692Z,84.56
2018-03-25T02:01:23.688Z,84.56
2018-03-25T02:03:16.580Z,84.38
2018-03-25T02:04:16.594Z,84.94
2018-03-25T02:06:09.507Z,85.04
2018-03-25T02:07:09.504Z,84.66
2018-03-25T02:09:02.410Z,84.94
2018-03-25T02:10:02.408Z,84.85
2018-03-25T02:11:55.300Z,84.75
2018-03-25T02:12:55.311Z,84.75
2018-03-25T02:14:48.229Z,84.56
2018-03-25T02:15:48.224Z,84.94
2018-03-25T02:17:41.118Z,84.75
2018-03-25T02:18:41.138Z,84.56
2018-03-25T02:20:34.052Z,85.13
2018-03-25T02:21:34.042Z,85.32
2018-03-25T02:23:26.935Z,85.04
2018-03-25T02:24:26.948Z,85.13
2018-03-25T02:26:19.860Z,85.04
2018-03-25T02:27:19.857Z,85.28
2018-03-25T02:29:12.765Z,85.19
2018-03-25T02:30:12.762Z,85.13
2018-03-25T02:32:05.654Z,84.75
2018-03-25T02:33:05.671Z,84.61
2018-03-25T02:34:58.577Z,84.85
2018-03-25T02:35:58.570Z,85.00
2018-03-25T02:37:51.463Z,84.85
2018-03-25T02:38:51.480Z,85.00
2018-03-25T02:40:44.388Z,84.52
2018-03-25T02:41:44.388Z,84.71
2018-03-25T02:43:37.272Z,84.90
2018-03-25T02:44:37.288Z,84.81
2018-03-25T02:46:30.195Z,84.71
2018-03-25T02:47:30.189Z,84.81
2018-03-25T02:49:23.097Z,84.90
2018-03-25T02:50:23.094Z,84.61
2018-03-25T02:52:15.981Z,85.28
2018-03-25T02:53:15.996Z,85.09
2018-03-25T02:55:08.908Z,85.19
2018-03-25T02:56:08.901Z,85.09
2018-03-25T02:58:01.792Z,85.38
2018-03-25T02:59:01.805Z,85.09
2018-03-25T03:00:54.718Z,84.61
2018-03-25T03:01:54.712Z,84.71
2018-03-25T03:03:47.601Z,84.42
2018-03-25T03:04:47.618Z,84.81
2018-03-25T03:06:40.526Z,84.81
2018-03-25T03:07:40.521Z,84.71
2018-03-25T03:09:33.432Z,84.33
2018-03-25T03:10:33.427Z,84.14
2018-03-25T03:12:26.319Z,84.42
2018-03-25T03:13:26.332Z,84.71
2018-03-25T03:15:19.239Z,84.42
2018-03-25T03:16:19.236Z,84.61
2018-03-25T03:18:12.127Z,84.52
2018-03-25T03:19:12.142Z,84.52
2018-03-25T03:21:05.052Z,84.33
2018-03-25T03:22:05.048Z,84.71
2018-03-25T03:23:57.945Z,85.00
2018-03-25T03:24:57.953Z,85.19
2018-03-25T03:26:50.865Z,84.71
2018-03-25T03:27:50.860Z,85.00
2018-03-25T03:29:43.767Z,84.90
2018-03-25T03:30:43.766Z,85.09
2018-03-25T03:32:36.657Z,85.00
2018-03-25T03:33:36.670Z,84.71
2018-03-25T03:35:29.578Z,84.52
2018-03-25T03:36:29.571Z,85.38
2018-03-25T03:38:22.465Z,85.09
2018-03-25T03:39:22.478Z,85.19
2018-03-25T03:41:15.386Z,84.81
2018-03-25T03:42:15.388Z,84.71
2018-03-25T03:44:08.273Z,84.71
2018-03-25T03:45:08.288Z,84.81
2018-03-25T03:47:01.192Z,84.81
2018-03-25T03:48:01.187Z,84.61
2018-03-25T03:49:54.105Z,84.81
2018-03-25T03:50:54.095Z,84.61
2018-03-25T03:52:46.985Z,85.28
2018-03-25T03:53:46.996Z,85.38
2018-03-25T03:55:39.907Z,85.94
2018-03-25T03:56:39.902Z,85.66
2018-03-25T03:58:32.792Z,85.94
2018-03-25T03:59:32.805Z,85.00
2018-03-25T04:01:25.719Z,85.57
2018-03-25T04:02:25.714Z,85.00
2018-03-25T04:04:18.605Z,85.00
2018-03-25T04:05:18.619Z,85.47
2018-03-25T04:07:11.528Z,85.09
2018-03-25T04:08:11.519Z,85.19
2018-03-25T04:10:04.433Z,85.09
2018-03-25T04:11:04.427Z,85.19
2018-03-25T04:12:57.321Z,85.09
2018-03-25T04:13:57.335Z,85.38
2018-03-25T04:15:50.242Z,85.38
2018-03-25T04:16:50.235Z,85.09
2018-03-25T04:18:43.127Z,85.38
2018-03-25T04:19:43.142Z,85.57
2018-03-25T04:21:36.051Z,85.94
2018-03-25T04:22:36.051Z,85.94
2018-03-25T04:24:28.939Z,85.00
2018-03-25T04:25:28.952Z,85.00
2018-03-25T04:27:21.864Z,85.47
2018-03-25T04:28:21.859Z,85.19
2018-03-25T04:30:14.771Z,85.28
2018-03-25T04:31:14.763Z,85.28
2018-03-25T04:33:07.690Z,84.61
2018-03-25T04:34:07.675Z,84.90
2018-03-25T04:36:00.585Z,85.00
2018-03-25T04:37:00.583Z,84.52
2018-03-25T04:38:53.476Z,84.42
2018-03-25T04:39:53.484Z,84.71
2018-03-25T04:41:46.395Z,84.71
2018-03-25T04:42:46.390Z,84.81
2018-03-25T04:44:39.283Z,84.42
2018-03-25T04:45:39.296Z,84.90
2018-03-25T04:47:32.207Z,84.71
2018-03-25T04:48:32.203Z,84.42
2018-03-25T04:50:25.252Z,84.61
2018-03-25T04:51:25.246Z,84.52
2018-03-25T04:53:18.140Z,84.23
2018-03-25T04:54:18.154Z,84.61
2018-03-25T04:56:11.069Z,84.61
2018-03-25T04:57:11.060Z,84.61
2018-03-25T04:59:03.954Z,84.52
2018-03-25T05:00:03.970Z,84.61
2018-03-25T05:01:56.879Z,84.61
2018-03-25T05:02:56.872Z,84.61
2018-03-25T05:04:49.767Z,84.61
2018-03-25T05:05:49.779Z,84.61
2018-03-25T05:07:42.689Z,84.33
2018-03-25T05:08:42.683Z,85.09
2018-03-25T05:10:35.593Z,84.71
2018-03-25T05:11:35.587Z,84.71
2018-03-25T05:13:28.475Z,84.90
2018-03-25T05:14:28.490Z,84.81
2018-03-25T05:16:21.401Z,84.90
2018-03-25T05:17:21.394Z,84.90
2018-03-25T05:19:14.283Z,85.28
2018-03-25T05:20:14.296Z,84.90
2018-03-25T05:22:07.205Z,85.09
2018-03-25T05:23:07.200Z,84.61
2018-03-25T05:25:00.092Z,84.61
2018-03-25T05:26:00.104Z,85.19
2018-03-25T05:27:53.015Z,85.47
2018-03-25T05:28:53.011Z,84.90
2018-03-25T05:30:45.918Z,85.28
2018-03-25T05:31:45.912Z,85.94
2018-03-25T05:33:38.808Z,85.94
2018-03-25T05:34:38.820Z,85.94
2018-03-25T05:36:31.729Z,85.75
2018-03-25T05:37:31.722Z,85.75
2018-03-25T05:39:24.616Z,85.85
2018-03-25T05:40:24.704Z,85.75
2018-03-25T05:42:17.538Z,85.47
2018-03-25T05:43:17.536Z,85.57
2018-03-25T05:45:10.424Z,85.47
2018-03-25T05:46:10.436Z,85.66
2018-03-25T05:48:03.344Z,85.57
2018-03-25T05:49:03.340Z,85.47
2018-03-25T05:50:56.255Z,85.94
2018-03-25T05:51:56.250Z,85.57
2018-03-25T05:53:49.140Z,85.61
2018-03-25T05:54:49.154Z,85.61
2018-03-25T05:56:42.065Z,84.94
2018-03-25T05:57:42.130Z,84.66
2018-03-25T05:59:34.951Z,84.75
2018-03-25T06:00:34.968Z,84.66
2018-03-25T06:02:27.878Z,85.04
2018-03-25T06:03:27.877Z,84.38
2018-03-25T06:05:20.768Z,84.47
2018-03-25T06:06:20.783Z,84.47
2018-03-25T06:08:13.695Z,84.38
2018-03-25T06:09:13.689Z,83.71
2018-03-25T06:11:06.612Z,84.38
2018-03-25T06:12:06.610Z,84.28
2018-03-25T06:13:59.508Z,84.19
2018-03-25T06:14:59.518Z,84.38
2018-03-25T06:16:52.429Z,84.66
2018-03-25T06:17:52.423Z,84.56
2018-03-25T06:19:45.322Z,84.47
2018-03-25T06:20:45.334Z,84.00
2018-03-25T06:22:38.248Z,84.80
2018-03-25T06:23:38.242Z,84.70
2018-03-25T06:25:31.140Z,84.28
2018-03-25T06:26:31.162Z,84.51
2018-03-25T06:28:24.070Z,84.66
2018-03-25T06:29:24.064Z,84.51
2018-03-25T06:31:16.979Z,84.23
2018-03-25T06:32:16.974Z,84.70
2018-03-25T06:34:09.868Z,84.42
2018-03-25T06:35:09.883Z,84.80
2018-03-25T06:37:02.797Z,84.23
2018-03-25T06:38:02.832Z,83.66
2018-03-25T06:39:55.690Z,83.61
2018-03-25T06:40:55.705Z,82.94
2018-03-25T06:42:48.618Z,82.66
2018-03-25T06:43:48.614Z,82.37
2018-03-25T06:45:41.509Z,82.47
2018-03-25T06:46:41.523Z,82.47
2018-03-25T06:48:34.474Z,82.37
2018-03-25T06:49:34.434Z,82.18
2018-03-25T06:51:27.349Z,82.66
2018-03-25T06:52:27.346Z,82.66
2018-03-25T06:54:20.241Z,82.56
2018-03-25T06:55:20.257Z,82.47
2018-03-25T06:57:13.172Z,81.71
2018-03-25T06:58:13.166Z,81.71
2018-03-25T07:00:06.066Z,81.56
2018-03-25T07:01:06.084Z,81.62
2018-03-25T07:02:58.999Z,82.51
2018-03-25T07:03:58.994Z,82.51
2018-03-25T07:05:51.886Z,81.37
2018-03-25T07:06:51.903Z,81.27
2018-03-25T07:08:44.816Z,80.62
2018-03-25T07:09:44.814Z,80.71
2018-03-25T07:11:37.728Z,80.24
2018-03-25T07:12:37.725Z,80.24
2018-03-25T07:14:30.640Z,80.04
2018-03-25T07:15:30.636Z,79.85
2018-03-25T07:17:23.554Z,80.33
2018-03-25T07:18:23.548Z,80.52
2018-03-25T07:20:16.446Z,80.27
2018-03-25T07:21:16.463Z,80.65
2018-03-25T07:23:09.382Z,80.08
2018-03-25T07:24:09.377Z,80.56
2018-03-25T07:26:02.278Z,79.90
2018-03-25T07:27:02.292Z,80.22
2018-03-25T07:28:55.374Z,80.13
2018-03-25T07:29:55.374Z,79.84
2018-03-25T07:31:48.290Z,79.27
2018-03-25T07:32:48.288Z,79.27
2018-03-25T07:34:41.187Z,78.70
2018-03-25T07:35:41.203Z,78.51
2018-03-25T07:37:34.272Z,77.75
2018-03-25T07:38:34.275Z,77.84
2018-03-25T07:40:27.174Z,77.47
2018-03-25T07:41:27.193Z,76.23
2018-03-25T07:43:20.108Z,76.23
2018-03-25T07:44:20.106Z,76.32
2018-03-25T07:46:13.028Z,76.04
2018-03-25T07:47:13.028Z,75.99
2018-03-25T07:49:05.945Z,75.89
2018-03-25T07:50:06.062Z,75.79
2018-03-25T07:51:58.866Z,76.37
2018-03-25T07:52:58.862Z,76.27
2018-03-25T07:54:51.762Z,75.89
2018-03-25T07:55:51.782Z,75.79
2018-03-25T07:57:44.698Z,75.89
2018-03-25T07:58:44.695Z,75.55
2018-03-25T08:00:37.597Z,75.26
2018-03-25T08:01:37.614Z,74.69
2018-03-25T08:03:30.535Z,74.51
2018-03-25T08:04:30.535Z,73.55
2018-03-25T08:06:23.438Z,72.92
2018-03-25T08:07:23.456Z,72.35
2018-03-25T08:09:16.424Z,71.59
2018-03-25T08:10:16.400Z,71.41
2018-03-25T08:12:09.324Z,70.26
2018-03-25T08:13:09.336Z,70.45
2018-03-25T08:15:02.234Z,70.49
2018-03-25T08:16:02.257Z,70.20
2018-03-25T08:17:55.179Z,69.82
2018-03-25T08:18:55.174Z,69.54
2018-03-25T08:20:48.093Z,68.40
2018-03-25T08:21:48.114Z,68.30
2018-03-25T08:23:41.060Z,67.44
2018-03-25T08:24:41.045Z,68.59
2018-03-25T08:26:33.958Z,69.41
2018-03-25T08:27:33.968Z,69.54
2018-03-25T08:29:27.000Z,70.20
2018-03-25T08:30:26.892Z,70.39
2018-03-25T08:32:19.814Z,68.87
2018-03-25T08:33:19.811Z,67.73
2018-03-25T08:35:12.716Z,67.63
2018-03-25T08:36:12.732Z,67.54
2018-03-25T08:38:05.659Z,67.76
2018-03-25T08:39:05.658Z,67.67
2018-03-25T08:40:58.569Z,66.62
2018-03-25T08:41:58.599Z,66.43
2018-03-25T08:43:51.527Z,66.72
2018-03-25T08:44:51.512Z,66.33
2018-03-25T08:47:44.587Z,66.91
2018-03-25T08:49:37.353Z,67.29
2018-03-25T08:50:37.355Z,66.91
2018-03-25T08:52:30.286Z,66.53
2018-03-25T08:53:30.284Z,65.77
2018-03-25T08:55:23.188Z,66.14
2018-03-25T08:56:23.206Z,66.62
2018-03-25T08:58:16.131Z,66.33
2018-03-25T08:59:16.132Z,66.62
2018-03-25T09:01:09.029Z,66.24
2018-03-25T09:02:09.047Z,66.05
2018-03-25T09:04:01.988Z,64.94
2018-03-25T09:05:01.985Z,64.84
2018-03-25T09:06:55.175Z,64.65
2018-03-25T09:07:55.200Z,64.28
2018-03-25T09:09:48.114Z,64.18
2018-03-25T09:10:48.119Z,64.40
2018-03-25T09:12:41.158Z,63.92
2018-03-25T09:13:41.543Z,63.17
2018-03-25T09:15:33.939Z,63.07
2018-03-25T09:16:33.959Z,63.83
2018-03-25T09:18:26.885Z,63.17
2018-03-25T09:19:26.890Z,63.73
2018-03-25T09:21:19.791Z,63.92
2018-03-25T09:22:19.812Z,62.97
2018-03-25T09:24:12.734Z,62.81
2018-03-25T09:25:12.735Z,62.52
2018-03-25T09:27:06.640Z,62.72
2018-03-25T09:28:06.654Z,62.62
2018-03-25T09:29:59.608Z,61.86
2018-03-25T09:30:59.583Z,61.48
2018-03-25T09:32:52.517Z,61.60
2018-03-25T09:33:52.508Z,61.60
2018-03-25T09:35:45.433Z,61.04
2018-03-25T09:36:45.455Z,59.79
2018-03-25T09:38:38.743Z,59.51
2018-03-25T09:39:38.456Z,59.79
2018-03-25T09:41:31.360Z,59.89
2018-03-25T09:42:31.379Z,60.21
2018-03-25T09:44:24.313Z,58.20
2018-03-25T09:45:24.317Z,58.87
2018-03-25T09:47:17.220Z,59.44
2018-03-25T09:48:17.240Z,58.58
2018-03-25T09:50:10.176Z,58.11
2018-03-25T09:51:10.181Z,58.68
2018-03-25T09:53:03.105Z,58.68
2018-03-25T09:54:03.108Z,57.82
2018-03-25T09:55:56.014Z,58.77
2018-03-25T09:56:56.042Z,58.48
2018-03-25T09:58:48.964Z,58.68
2018-03-25T09:59:48.963Z,58.77
2018-03-25T10:01:41.876Z,57.82
2018-03-25T10:02:41.899Z,58.11
2018-03-25T10:04:34.845Z,57.72
2018-03-25T10:05:34.826Z,58.01
2018-03-25T10:07:27.734Z,57.34
2018-03-25T10:08:27.758Z,56.87
2018-03-25T10:10:20.678Z,57.43
2018-03-25T10:11:20.681Z,58.01
2018-03-25T10:13:13.619Z,58.11
2018-03-25T10:14:13.624Z,57.65
2018-03-25T10:16:06.533Z,56.13
2018-03-25T10:17:06.551Z,55.94
2018-03-25T10:18:59.519Z,55.94
2018-03-25T10:19:59.519Z,55.84
2018-03-25T10:21:52.400Z,56.25
2018-03-25T10:22:52.421Z,55.84
2018-03-25T10:24:45.348Z,55.49
2018-03-25T10:25:45.352Z,55.58
2018-03-25T10:27:38.263Z,54.72
2018-03-25T10:28:38.285Z,54.25
2018-03-25T10:30:31.211Z,53.10
2018-03-25T10:31:31.215Z,53.20
2018-03-25T10:33:24.146Z,52.53
2018-03-25T10:34:24.145Z,52.84
2018-03-25T10:36:17.053Z,52.94
2018-03-25T10:37:17.073Z,52.55
2018-03-25T10:39:10.010Z,51.70
2018-03-25T10:40:10.006Z,51.72
2018-03-25T10:42:02.939Z,51.34
2018-03-25T10:43:03.036Z,51.91
2018-03-25T10:44:55.892Z,50.95
2018-03-25T10:45:55.895Z,50.76
2018-03-25T10:47:48.803Z,50.19
2018-03-25T10:48:48.947Z,50.38
2018-03-25T10:50:41.769Z,50.57
2018-03-25T10:51:41.771Z,50.76
2018-03-25T10:53:34.702Z,50.64
2018-03-25T10:54:34.724Z,50.84
2018-03-25T10:56:27.680Z,51.98
2018-03-25T10:57:27.857Z,50.84
2018-03-25T10:59:20.630Z,50.07
2018-03-25T11:00:20.643Z,49.40
2018-03-25T11:02:13.567Z,49.43
2018-03-25T11:03:13.594Z,48.95
2018-03-25T11:05:06.550Z,47.89
2018-03-25T11:06:06.540Z,47.99
2018-03-25T11:07:59.600Z,47.99
2018-03-25T11:08:59.474Z,46.46
2018-03-25T11:10:52.412Z,48.25
2018-03-25T11:11:52.416Z,48.54
2018-03-25T11:13:45.492Z,48.57
2018-03-25T11:14:45.358Z,47.97
2018-03-25T11:16:38.419Z,48.93
2018-03-25T11:17:38.293Z,48.64
2018-03-25T11:19:31.307Z,48.07
2018-03-25T11:20:31.227Z,47.87
2018-03-25T11:22:24.133Z,47.23
2018-03-25T11:23:24.217Z,46.75
2018-03-25T11:25:17.616Z,46.44
2018-03-25T11:26:17.633Z,46.44
2018-03-25T11:28:10.589Z,46.34
2018-03-25T11:29:10.614Z,46.56
2018-03-25T11:31:03.757Z,46.17
2018-03-25T11:32:03.562Z,45.70
2018-03-25T11:33:56.494Z,45.51
2018-03-25T11:34:56.501Z,44.84
2018-03-25T11:36:49.409Z,45.31
2018-03-25T11:37:49.436Z,45.31
2018-03-25T11:39:42.376Z,44.45
2018-03-25T11:40:42.382Z,44.65
2018-03-25T11:42:35.296Z,44.65
2018-03-25T11:43:35.317Z,45.03
2018-03-25T11:45:28.248Z,44.65
2018-03-25T11:46:28.253Z,43.52
2018-03-25T11:48:21.165Z,43.14
2018-03-25T11:49:21.189Z,42.56
2018-03-25T11:51:14.136Z,41.99
2018-03-25T11:52:14.141Z,42.47
2018-03-25T11:54:07.099Z,41.68
2018-03-25T11:55:07.077Z,42.44
2018-03-25T11:56:59.988Z,42.93
2018-03-25T11:58:00.008Z,42.64
2018-03-25T11:59:52.943Z,42.47
2018-03-25T12:00:52.975Z,41.58
2018-03-25T12:02:45.872Z,41.11
2018-03-25T12:03:45.887Z,41.39
2018-03-25T12:05:38.915Z,41.03
2018-03-25T12:06:38.966Z,42.08
2018-03-25T12:08:31.741Z,41.61
2018-03-25T12:09:32.811Z,41.70
2018-03-25T12:11:24.736Z,42.08
2018-03-25T12:12:24.695Z,41.80
2018-03-25T12:14:17.648Z,42.44
2018-03-25T12:15:17.629Z,42.44
2018-03-25T12:17:10.540Z,42.73
2018-03-25T12:18:10.564Z,43.02
2018-03-25T12:20:03.505Z,43.50
2018-03-25T12:21:03.505Z,43.21
2018-03-25T12:22:56.417Z,43.40
2018-03-25T12:23:56.441Z,43.21
2018-03-25T12:25:49.365Z,42.44
2018-03-25T12:26:49.373Z,42.56
2018-03-25T12:28:42.280Z,42.73
2018-03-25T12:29:42.305Z,43.30
2018-03-25T12:31:35.230Z,44.26
2018-03-25T12:32:35.236Z,43.79
2018-03-25T12:34:28.146Z,42.44
2018-03-25T12:35:28.166Z,42.54
2018-03-25T12:37:21.133Z,43.48
2018-03-25T12:38:21.130Z,43.50
2018-03-25T12:40:14.066Z,42.73
2018-03-25T12:41:14.059Z,43.21
2018-03-25T12:43:06.987Z,43.59
2018-03-25T12:44:07.045Z,43.88
2018-03-25T12:45:59.923Z,43.30
2018-03-25T12:46:59.930Z,42.93
2018-03-25T12:48:52.832Z,42.64
2018-03-25T12:49:52.869Z,42.64
2018-03-25T12:51:45.786Z,42.54
2018-03-25T12:52:45.791Z,42.64
2018-03-25T12:54:38.701Z,42.94
2018-03-25T12:55:38.725Z,42.93
2018-03-25T12:57:32.651Z,42.64
2018-03-25T12:58:32.693Z,42.64
2018-03-25T13:00:25.588Z,43.52
2018-03-25T13:01:25.594Z,43.04
2018-03-25T13:03:18.513Z,41.61
2018-03-25T13:04:18.601Z,41.22
2018-03-25T13:06:11.566Z,41.80
2018-03-25T13:07:11.536Z,41.89
2018-03-25T13:09:04.385Z,41.80
2018-03-25T13:10:04.467Z,41.51
2018-03-25T13:11:57.452Z,41.51
2018-03-25T13:12:57.357Z,41.80
2018-03-25T13:14:50.293Z,41.13
2018-03-25T13:15:50.333Z,41.41
2018-03-25T13:17:43.278Z,41.70
2018-03-25T13:18:43.266Z,41.99
2018-03-25T13:20:36.192Z,41.13
2018-03-25T13:21:36.186Z,41.61
2018-03-25T13:23:29.082Z,40.86
2018-03-25T13:24:29.110Z,41.24
2018-03-25T13:26:22.018Z,41.32
2018-03-25T13:27:22.064Z,41.34
2018-03-25T13:29:14.968Z,40.55
2018-03-25T13:30:14.981Z,40.84
2018-03-25T13:32:07.918Z,41.03
2018-03-25T13:33:07.922Z,41.41
2018-03-25T13:35:00.844Z,41.87
2018-03-25T13:36:00.849Z,42.16
2018-03-25T13:37:54.823Z,41.97
2018-03-25T13:38:53.798Z,42.16
2018-03-25T13:40:46.726Z,42.14
2018-03-25T13:41:46.767Z,42.25
2018-03-25T13:43:39.618Z,41.68
2018-03-25T13:44:39.775Z,42.16
2018-03-25T13:46:32.667Z,42.44
2018-03-25T13:47:32.592Z,42.93
2018-03-25T13:49:25.576Z,42.73
2018-03-25T13:50:25.544Z,43.57
2018-03-25T13:52:18.471Z,43.86
2018-03-25T13:53:18.497Z,43.86
2018-03-25T13:55:11.372Z,43.69
2018-03-25T13:56:11.409Z,43.48
2018-03-25T13:58:04.413Z,42.54
2018-03-25T13:59:04.337Z,42.54
2018-03-25T14:00:58.273Z,42.73
2018-03-25T14:01:58.325Z,42.83
2018-03-25T14:03:51.175Z,42.44
2018-03-25T14:04:51.188Z,41.87
2018-03-25T14:06:44.168Z,42.44
2018-03-25T14:07:44.159Z,42.35
2018-03-25T14:09:37.079Z,42.35
2018-03-25T14:10:37.074Z,42.25
2018-03-25T14:12:30.055Z,42.16
2018-03-25T14:13:30.018Z,41.99
2018-03-25T14:15:22.939Z,42.44
2018-03-25T14:16:22.924Z,41.87
2018-03-25T14:18:15.849Z,41.78
2018-03-25T14:19:15.850Z,42.54
2018-03-25T14:21:08.781Z,42.73
2018-03-25T14:22:08.795Z,43.12
2018-03-25T14:24:01.709Z,42.73
2018-03-25T14:25:01.728Z,43.79
2018-03-25T14:26:54.647Z,42.64
2018-03-25T14:27:54.665Z,43.12
2018-03-25T14:29:47.568Z,42.83
2018-03-25T14:30:47.591Z,43.12
2018-03-25T14:32:40.575Z,43.29
2018-03-25T14:33:40.530Z,43.86
2018-03-25T14:35:33.448Z,43.57
2018-03-25T14:36:33.464Z,43.76
2018-03-25T14:38:26.439Z,43.76
2018-03-25T14:39:26.413Z,43.86
2018-03-25T14:41:19.354Z,44.53
2018-03-25T14:42:19.356Z,44.72
2018-03-25T14:44:12.254Z,44.81
2018-03-25T14:45:12.269Z,43.76
2018-03-25T14:47:05.237Z,43.66
2018-03-25T14:48:05.420Z,44.24
2018-03-25T14:49:58.074Z,43.86
2018-03-25T14:50:58.152Z,44.15
2018-03-25T14:52:51.049Z,44.53
2018-03-25T14:53:51.021Z,44.62
2018-03-25T14:55:43.984Z,44.34
2018-03-25T14:56:43.957Z,44.72
2018-03-25T14:58:36.938Z,45.67
2018-03-25T14:59:36.895Z,46.63
2018-03-25T15:01:29.840Z,47.47
2018-03-25T15:02:29.821Z,47.85
2018-03-25T15:04:23.546Z,49.35
2018-03-25T15:05:22.781Z,50.31
2018-03-25T15:07:15.783Z,50.12
2018-03-25T15:08:15.714Z,49.83
2018-03-25T15:10:08.607Z,49.93
2018-03-25T15:11:08.634Z,50.40
2018-03-25T15:13:01.577Z,50.69
2018-03-25T15:14:01.577Z,50.12
2018-03-25T15:15:54.491Z,50.21
2018-03-25T15:16:54.530Z,50.31
2018-03-25T15:18:47.521Z,50.12
2018-03-25T15:19:47.477Z,49.07
2018-03-25T15:21:40.357Z,49.64
2018-03-25T15:22:40.377Z,49.35
2018-03-25T15:24:33.284Z,49.73
2018-03-25T15:25:33.333Z,49.64
2018-03-25T15:27:26.266Z,49.35
2018-03-25T15:28:26.228Z,49.07
2018-03-25T15:30:19.118Z,48.59
2018-03-25T15:31:19.184Z,48.39
2018-03-25T15:33:12.147Z,49.44
2018-03-25T15:34:12.114Z,49.44
2018-03-25T15:36:05.010Z,49.07
2018-03-25T15:37:05.037Z,49.26
2018-03-25T15:38:58.047Z,49.26
2018-03-25T15:39:57.978Z,49.73
2018-03-25T15:41:50.915Z,50.21
2018-03-25T15:42:50.922Z,50.02
2018-03-25T15:44:43.831Z,49.64
2018-03-25T15:45:43.844Z,49.73
2018-03-25T15:47:36.770Z,49.26
2018-03-25T15:48:36.765Z,49.16
2018-03-25T15:50:29.637Z,49.16
2018-03-25T15:51:29.656Z,48.78
2018-03-25T15:53:22.583Z,48.88
2018-03-25T15:54:22.607Z,48.88
2018-03-25T15:56:15.492Z,49.42
2018-03-25T15:57:15.536Z,49.73
2018-03-25T15:59:08.489Z,50.12
2018-03-25T16:00:08.450Z,50.49
2018-03-25T16:02:01.406Z,48.97
2018-03-25T16:03:01.468Z,48.78
2018-03-25T16:04:54.277Z,49.44
2018-03-25T16:05:54.298Z,49.44
2018-03-25T16:07:47.225Z,48.78
2018-03-25T16:08:47.220Z,48.49
2018-03-25T16:10:40.160Z,47.92
2018-03-25T16:11:40.173Z,47.92
2018-03-25T16:13:33.102Z,48.02
2018-03-25T16:14:33.092Z,47.92
2018-03-25T16:16:26.014Z,48.75
2018-03-25T16:17:26.025Z,48.85
2018-03-25T16:19:18.953Z,50.18
2018-03-25T16:20:18.952Z,49.64
2018-03-25T16:22:11.912Z,49.07
2018-03-25T16:23:11.874Z,49.16
2018-03-25T16:25:04.781Z,48.97
2018-03-25T16:26:04.782Z,48.97
2018-03-25T16:27:57.771Z,48.57
2018-03-25T16:28:57.735Z,48.57
2018-03-25T16:30:50.622Z,48.94
2018-03-25T16:31:50.641Z,49.04
2018-03-25T16:33:43.550Z,49.04
2018-03-25T16:34:43.550Z,49.52
2018-03-25T16:36:36.463Z,49.04
2018-03-25T16:37:36.511Z,48.88
2018-03-25T16:39:29.405Z,49.07
2018-03-25T16:40:29.425Z,48.97
2018-03-25T16:42:22.332Z,48.88
2018-03-25T16:43:22.332Z,48.78
2018-03-25T16:45:15.238Z,48.88
2018-03-25T16:46:15.257Z,49.07
2018-03-25T16:48:08.183Z,49.54
2018-03-25T16:49:08.183Z,49.54
2018-03-25T16:51:01.089Z,49.54
2018-03-25T16:52:01.108Z,49.44
2018-03-25T16:53:54.036Z,49.26
2018-03-25T16:54:54.047Z,49.16
2018-03-25T16:56:46.945Z,48.49
2018-03-25T16:57:46.966Z,48.78
2018-03-25T16:59:39.892Z,48.59
2018-03-25T17:00:39.891Z,48.49
2018-03-25T17:02:32.822Z,48.68
2018-03-25T17:03:32.820Z,48.49
2018-03-25T17:05:25.732Z,48.30
2018-03-25T17:06:25.746Z,48.97
2018-03-25T17:08:18.678Z,48.97
2018-03-25T17:09:18.677Z,48.88
2018-03-25T17:11:11.582Z,48.88
2018-03-25T17:12:11.603Z,49.26
2018-03-25T17:14:04.528Z,49.16
2018-03-25T17:15:04.531Z,49.16
2018-03-25T17:16:57.436Z,48.49
2018-03-25T17:17:57.454Z,48.68
2018-03-25T17:19:50.380Z,49.04
2018-03-25T17:20:50.381Z,49.64
2018-03-25T17:22:43.304Z,49.62
2018-03-25T17:23:43.304Z,49.71
2018-03-25T17:25:36.207Z,49.62
2018-03-25T17:26:36.232Z,49.62
2018-03-25T17:28:29.152Z,49.62
2018-03-25T17:29:29.152Z,49.80
2018-03-25T17:31:22.071Z,49.99
2018-03-25T17:32:22.106Z,50.18
2018-03-25T17:34:15.021Z,49.99
2018-03-25T17:35:15.003Z,49.99
2018-03-25T17:37:07.910Z,50.76
2018-03-25T17:38:07.931Z,50.67
2018-03-25T17:40:00.856Z,50.57
2018-03-25T17:41:00.865Z,50.67
2018-03-25T17:42:53.779Z,50.57
2018-03-25T17:43:53.778Z,50.67
2018-03-25T17:45:46.683Z,50.67
2018-03-25T17:46:46.706Z,50.67
2018-03-25T17:48:39.645Z,50.47
2018-03-25T17:49:39.717Z,50.85
2018-03-25T17:51:32.555Z,50.67
2018-03-25T17:52:32.573Z,51.33
2018-03-25T17:54:26.494Z,51.71
2018-03-25T17:55:26.501Z,52.57
2018-03-25T17:57:19.400Z,52.76
2018-03-25T17:58:19.420Z,52.92
2018-03-25T18:00:12.378Z,53.05
2018-03-25T18:01:12.341Z,52.83
2018-03-25T18:03:05.264Z,53.24
2018-03-25T18:04:05.264Z,52.73
2018-03-25T18:05:58.168Z,53.59
2018-03-25T18:06:58.187Z,53.21
2018-03-25T18:08:51.293Z,54.36
2018-03-25T18:09:51.290Z,54.45
2018-03-25T18:11:44.204Z,54.45
2018-03-25T18:12:44.215Z,55.12
2018-03-25T18:14:37.137Z,54.83
2018-03-25T18:15:37.138Z,54.64
2018-03-25T18:17:34.102Z,55.21
2018-03-25T18:18:30.060Z,54.93
2018-03-25T18:20:22.983Z,54.64
2018-03-25T18:21:22.989Z,54.64
2018-03-25T18:23:15.906Z,54.45
2018-03-25T18:24:15.920Z,54.64
2018-03-25T18:26:08.816Z,54.80
2018-03-25T18:27:08.837Z,55.38
2018-03-25T18:29:01.766Z,55.95
2018-03-25T18:30:01.763Z,56.33
2018-03-25T18:31:54.676Z,57.57
2018-03-25T18:32:54.687Z,58.62
2018-03-25T18:34:47.611Z,59.57